createdAt,value
2023-05-01T15:10:48.165Z,10.90
2023-05-01T15:13:14.761Z,12.80
2023-05-01T15:15:41.583Z,6.80
2023-05-01T15:18:11.445Z,4.40
2023-05-01T15:23:05.785Z,7.50
2023-05-01T15:25:32.358Z,10.50
2023-05-01T15:27:58.957Z,8.90
2023-05-01T15:30:25.701Z,4.20
2023-05-01T15:32:55.378Z,6.90
2023-05-01T15:35:23.634Z,6.70
2023-05-01T15:37:50.726Z,8.60
2023-05-01T15:40:17.465Z,6.80
2023-05-01T15:42:45.528Z,6.90
2023-05-01T15:45:12.122Z,5.40
2023-05-01T15:47:38.781Z,5.20
2023-05-01T15:50:09.552Z,7.60
2023-05-01T15:52:36.147Z,11.40
2023-05-01T15:55:02.795Z,9.70
2023-05-01T15:57:32.544Z,3.80
2023-05-01T15:59:59.248Z,4.60
2023-05-01T16:02:29.262Z,8.00
2023-05-01T16:04:55.938Z,5.50
2023-05-01T16:07:22.531Z,7.00
2023-05-01T16:09:49.327Z,5.90
2023-05-01T16:12:16.069Z,7.40
2023-05-01T16:14:42.689Z,5.80
2023-05-01T16:17:09.638Z,4.80
2023-05-01T16:19:39.118Z,3.20
2023-05-01T16:22:07.358Z,4.30
2023-05-01T16:24:36.150Z,4.00
2023-05-01T16:27:03.132Z,10.20
2023-05-01T16:29:33.410Z,4.50
2023-05-01T16:32:00.216Z,6.80
2023-05-01T16:34:27.599Z,5.80
2023-05-01T16:36:56.147Z,5.10
2023-05-01T16:39:23.222Z,5.00
2023-05-01T16:41:52.373Z,4.60
2023-05-01T16:44:21.265Z,6.60
2023-05-01T16:46:58.605Z,6.80
2023-05-01T16:49:29.894Z,5.70
2023-05-01T16:51:58.290Z,3.90
2023-05-01T16:54:35.293Z,4.00
2023-05-01T16:57:03.299Z,7.10
2023-05-01T16:59:30.634Z,8.70
2023-05-01T17:01:57.574Z,7.90
2023-05-01T17:04:25.224Z,5.30
2023-05-01T17:06:52.280Z,9.00
2023-05-01T17:09:19.163Z,6.40
2023-05-01T17:11:56.755Z,5.40
2023-05-01T17:14:23.913Z,5.90
2023-05-01T17:16:50.998Z,6.20
2023-05-01T17:19:17.737Z,8.70
2023-05-01T17:21:44.355Z,5.80
2023-05-01T17:24:12.964Z,8.60
2023-05-01T17:26:39.655Z,10.50
2023-05-01T17:29:06.217Z,7.40
2023-05-01T17:31:32.935Z,8.90
2023-05-01T17:33:59.813Z,12.30
2023-05-01T17:36:27.170Z,10.10
2023-05-01T17:38:54.649Z,12.40
2023-05-01T17:41:24.298Z,11.60
2023-05-01T17:43:50.919Z,11.10
2023-05-01T17:46:18.429Z,10.80
2023-05-01T17:48:45.136Z,49.80
2023-05-01T17:51:14.116Z,31.30
2023-05-01T17:53:41.690Z,34.30
2023-05-01T17:56:09.118Z,27.20
2023-05-01T17:58:35.833Z,14.60
2023-05-01T18:01:04.648Z,18.40
2023-05-01T18:03:32.954Z,22.20
2023-05-01T18:06:01.664Z,23.10
2023-05-01T18:08:28.402Z,26.00
2023-05-01T18:10:55.305Z,32.80
2023-05-01T18:13:27.854Z,33.00
2023-05-01T18:15:57.769Z,42.40
2023-05-01T18:18:24.714Z,27.30
2023-05-01T18:20:51.833Z,24.80
2023-05-01T18:23:18.885Z,24.10
2023-05-01T18:25:46.482Z,21.30
2023-05-01T18:28:13.557Z,19.90
2023-05-01T18:30:40.150Z,25.40
2023-05-01T18:33:06.913Z,19.70
2023-05-01T18:35:33.668Z,21.80
2023-05-01T18:38:00.298Z,20.80
2023-05-01T18:40:27.437Z,22.30
2023-05-01T18:42:54.166Z,31.90
2023-05-01T18:45:20.903Z,29.80
2023-05-01T18:47:48.148Z,71.70
2023-05-01T18:50:16.981Z,55.80
2023-05-01T18:52:43.921Z,55.00
2023-05-01T18:55:11.637Z,48.40
2023-05-01T18:57:38.277Z,49.60
2023-05-01T19:00:06.549Z,49.10
2023-05-01T19:02:33.403Z,51.70
2023-05-01T19:05:00.159Z,53.40
2023-05-01T19:07:26.898Z,45.30
2023-05-01T19:09:53.664Z,39.60
2023-05-01T19:12:20.292Z,30.10
2023-05-01T19:14:47.096Z,31.50
2023-05-01T19:17:13.826Z,29.90
2023-05-01T19:19:40.448Z,24.80
2023-05-01T19:22:07.461Z,23.50
2023-05-01T19:24:34.201Z,18.50
2023-05-01T19:27:03.585Z,22.90
2023-05-01T19:29:31.947Z,19.10
2023-05-01T19:32:00.425Z,21.70
2023-05-01T19:34:27.884Z,29.60
2023-05-01T19:36:57.102Z,25.00
2023-05-01T19:39:24.224Z,19.80
2023-05-01T19:41:51.005Z,20.60
2023-05-01T19:44:18.028Z,15.60
2023-05-01T19:46:45.047Z,23.80
2023-05-01T19:49:12.071Z,17.00
2023-05-01T19:51:38.739Z,16.60
2023-05-01T19:54:05.356Z,12.50
2023-05-01T19:56:31.971Z,16.00
2023-05-01T19:59:01.333Z,18.60
2023-05-01T20:01:31.345Z,11.10
2023-05-01T20:03:58.291Z,9.50
2023-05-01T20:06:24.978Z,10.20
2023-05-01T20:08:52.046Z,12.30
2023-05-01T20:11:18.794Z,18.60
2023-05-01T20:13:46.048Z,18.80
2023-05-01T20:16:13.037Z,20.50
2023-05-01T20:18:39.695Z,27.40
2023-05-01T20:21:07.723Z,23.20
2023-05-01T20:23:34.888Z,19.60
2023-05-01T20:26:01.844Z,14.00
2023-05-01T20:28:28.626Z,12.60
2023-05-01T20:30:56.306Z,12.90
2023-05-01T20:33:23.173Z,10.30
2023-05-01T20:35:51.469Z,10.20
2023-05-01T20:38:18.334Z,14.00
2023-05-01T20:40:45.366Z,14.00
2023-05-01T20:43:13.058Z,11.80
2023-05-01T20:45:39.697Z,11.50
2023-05-01T20:48:06.735Z,10.60
2023-05-01T20:50:34.908Z,10.90
2023-05-01T20:53:01.796Z,13.90
2023-05-01T20:55:30.051Z,10.00
2023-05-01T20:57:56.795Z,12.60
2023-05-01T21:00:23.575Z,11.90
2023-05-01T21:02:51.750Z,12.10
2023-05-01T21:05:18.655Z,12.80
2023-05-01T21:07:45.365Z,11.30
2023-05-01T21:10:14.317Z,11.60
2023-05-01T21:12:41.073Z,10.00
2023-05-01T21:15:09.347Z,10.70
2023-05-01T21:17:37.105Z,14.20
2023-05-01T21:20:08.551Z,9.90
2023-05-01T21:22:35.826Z,12.30
2023-05-01T21:25:02.650Z,10.10
2023-05-01T21:27:29.392Z,13.50
2023-05-01T21:29:59.263Z,12.50
2023-05-01T21:35:00.522Z,17.40
2023-05-01T21:37:30.087Z,13.80
2023-05-01T21:40:01.361Z,12.80
2023-05-01T21:42:35.764Z,13.80
2023-05-01T21:45:07.647Z,10.70
2023-05-01T21:47:38.638Z,16.30
2023-05-01T21:50:07.188Z,18.20
2023-05-01T21:52:34.966Z,13.90
2023-05-01T21:55:03.790Z,16.10
2023-05-01T21:57:31.769Z,13.00
2023-05-01T22:00:01.642Z,16.90
2023-05-01T22:02:35.224Z,15.70
2023-05-01T22:05:01.981Z,14.60
2023-05-01T22:07:28.535Z,11.50
2023-05-01T22:09:59.074Z,14.10
2023-05-01T22:12:26.099Z,14.00
2023-05-01T22:14:53.130Z,11.90
2023-05-01T22:17:24.359Z,20.10
2023-05-01T22:19:51.789Z,23.50
2023-05-01T22:22:19.452Z,15.80
2023-05-01T22:24:46.505Z,21.80
2023-05-01T22:27:13.229Z,18.90
2023-05-01T22:29:39.807Z,20.20
2023-05-01T22:32:06.434Z,16.80
2023-05-01T22:34:33.391Z,17.00
2023-05-01T22:36:59.979Z,18.10
2023-05-01T22:39:26.516Z,19.80
2023-05-01T22:41:53.148Z,14.90
2023-05-01T22:44:22.334Z,13.60
2023-05-01T22:46:49.122Z,13.10
2023-05-01T22:49:15.704Z,14.60
2023-05-01T22:51:42.246Z,14.90
2023-05-01T22:54:08.932Z,13.00
2023-05-01T22:56:35.637Z,11.60
2023-05-01T22:59:02.284Z,12.90
2023-05-01T23:01:29.421Z,11.80
2023-05-01T23:03:56.645Z,13.10
2023-05-01T23:06:23.536Z,14.40
2023-05-01T23:08:56.179Z,22.30
2023-05-01T23:11:22.855Z,21.40
2023-05-01T23:13:50.083Z,25.10
2023-05-01T23:16:17.651Z,25.60
2023-05-01T23:18:45.594Z,23.60
2023-05-01T23:21:18.187Z,22.70
2023-05-01T23:23:46.586Z,19.20
2023-05-01T23:26:27.004Z,17.30
2023-05-01T23:28:53.893Z,21.40
2023-05-01T23:31:27.828Z,16.10
2023-05-01T23:33:55.457Z,11.70
2023-05-01T23:36:22.154Z,16.60
2023-05-01T23:38:48.853Z,11.40
2023-05-01T23:41:16.567Z,10.10
2023-05-01T23:43:46.586Z,12.50
2023-05-01T23:46:13.926Z,11.80
2023-05-01T23:48:41.547Z,12.00
2023-05-01T23:51:08.383Z,13.50
2023-05-01T23:53:35.008Z,9.50
2023-05-01T23:56:02.198Z,13.20
2023-05-01T23:58:28.806Z,13.30
